createdAt,value
2018-12-05T16:22:40.155Z,99530.75
2018-12-05T16:25:10.529Z,99526.92
2018-12-05T16:30:18.666Z,99521.05
2018-12-05T16:32:48.969Z,99520.87
2018-12-05T16:35:19.298Z,99521.71
2018-12-05T16:37:49.560Z,99515.66
2018-12-05T16:40:20.054Z,99515.84
2018-12-05T16:42:50.571Z,99509.48
2018-12-05T16:45:20.830Z,99508.81
2018-12-05T16:47:52.015Z,99509.92
2018-12-05T16:50:22.781Z,99511.26
2018-12-05T16:52:52.891Z,99513.08
2018-12-05T16:55:22.936Z,99513.57
2018-12-05T16:57:53.870Z,99514.77
2018-12-05T17:00:25.354Z,99514.91
2018-12-05T17:02:56.252Z,99521.94
2018-12-05T17:05:26.782Z,99522.91
2018-12-05T17:07:57.319Z,99529.37
2018-12-05T17:10:27.552Z,99530.52
2018-12-05T17:12:57.772Z,99534.20
2018-12-05T17:18:07.247Z,99537.98
2018-12-05T17:20:37.350Z,99542.30
2018-12-05T17:23:07.417Z,99537.94
2018-12-05T17:25:37.600Z,99547.98
2018-12-05T17:28:07.800Z,99545.09
2018-12-05T17:30:38.679Z,99542.95
2018-12-05T17:35:49.892Z,99542.06
2018-12-05T17:38:19.878Z,99540.59
2018-12-05T17:40:50.123Z,99542.91
2018-12-05T17:43:20.522Z,99545.20
2018-12-05T17:48:30.059Z,99554.80
2018-12-05T17:51:00.398Z,99561.34
2018-12-05T17:53:30.494Z,99558.32
2018-12-05T17:56:00.976Z,99553.96
2018-12-05T17:58:31.426Z,99558.63
2018-12-05T18:01:01.824Z,99561.64
2018-12-05T18:03:32.016Z,99569.48
2018-12-05T18:06:02.497Z,99570.49
2018-12-05T18:08:33.545Z,99569.58
2018-12-05T18:11:03.947Z,99569.83
2018-12-05T18:13:34.109Z,99572.12
2018-12-05T18:16:04.298Z,99579.94
2018-12-05T18:18:34.877Z,99577.40
2018-12-05T18:21:06.586Z,99575.09
2018-12-05T18:23:37.776Z,99568.55
2018-12-05T18:26:07.998Z,99575.74
2018-12-05T18:28:38.575Z,99585.41
2018-12-05T18:31:08.707Z,99584.06
2018-12-05T18:33:39.127Z,99578.55
2018-12-05T18:36:09.369Z,99580.86
2018-12-05T18:38:39.837Z,99574.41
2018-12-05T18:41:09.894Z,99582.73
2018-12-05T18:43:39.934Z,99579.95
2018-12-05T18:46:10.395Z,99588.99
2018-12-05T18:48:41.093Z,99583.47
2018-12-05T18:51:11.199Z,99585.83
2018-12-05T18:53:42.071Z,99583.33
2018-12-05T18:56:12.375Z,99584.14
2018-12-05T18:58:42.754Z,99576.80
2018-12-05T19:01:13.410Z,99582.49
2018-12-05T19:03:43.831Z,99572.66
2018-12-05T19:06:14.034Z,99574.32
2018-12-05T19:08:44.521Z,99572.00
2018-12-05T19:11:14.942Z,99568.87
2018-12-05T19:14:51.778Z,99579.22
2018-12-05T19:17:23.053Z,99574.02
2018-12-05T19:19:53.436Z,99581.89
2018-12-05T19:22:24.320Z,99583.82
2018-12-05T19:24:54.438Z,99588.15
2018-12-05T19:27:24.942Z,99589.89
2018-12-05T19:29:56.075Z,99595.17
2018-12-05T19:32:27.514Z,99583.28
2018-12-05T19:34:59.873Z,99585.48
2018-12-05T19:37:30.467Z,99589.72
2018-12-05T19:42:38.056Z,99592.50
2018-12-05T19:45:09.910Z,99595.36
2018-12-05T19:47:40.221Z,99596.88
2018-12-05T19:50:10.630Z,99597.19
2018-12-05T19:52:41.415Z,99597.70
2018-12-05T19:55:13.459Z,99589.53
2018-12-05T19:57:44.407Z,99594.30
2018-12-05T20:00:16.937Z,99594.80
2018-12-05T20:02:47.366Z,99595.53
2018-12-05T20:05:17.526Z,99600.89
2018-12-05T20:07:48.827Z,99599.44
2018-12-05T20:10:18.910Z,99601.73
2018-12-05T20:12:49.494Z,99607.05
2018-12-05T20:15:21.483Z,99606.77
2018-12-05T20:17:52.259Z,99612.22
2018-12-05T20:20:22.517Z,99607.86
2018-12-05T20:22:53.180Z,99606.88
2018-12-05T20:25:28.530Z,99602.03
2018-12-05T20:27:59.337Z,99602.93
2018-12-05T20:30:30.326Z,99607.42
2018-12-05T20:33:01.468Z,99599.74
2018-12-05T20:35:32.610Z,99601.00
2018-12-05T20:38:03.360Z,99594.52
2018-12-05T20:40:34.028Z,99590.08
2018-12-05T20:43:05.369Z,99587.25
2018-12-05T20:45:36.028Z,99585.72
2018-12-05T20:48:06.580Z,99594.10
2018-12-05T20:50:43.205Z,99585.00
2018-12-05T20:53:13.815Z,99578.69
2018-12-05T20:55:44.694Z,99582.89
2018-12-05T20:58:15.459Z,99580.39
2018-12-05T21:00:45.983Z,99570.86
2018-12-05T21:03:16.674Z,99580.46
2018-12-05T21:05:47.026Z,99578.27
2018-12-05T21:08:17.436Z,99569.89
2018-12-05T21:10:48.016Z,99567.09
2018-12-05T21:13:18.412Z,99560.30
2018-12-05T21:15:48.748Z,99554.36
2018-12-05T21:21:29.303Z,99544.17
2018-12-05T21:23:59.817Z,99535.06
2018-12-05T21:26:30.177Z,99529.23
2018-12-05T21:29:00.975Z,99526.87
2018-12-05T21:31:31.483Z,99523.22
2018-12-05T21:34:04.654Z,99513.48
2018-12-05T21:36:35.952Z,99518.55
2018-12-05T21:39:08.915Z,99517.22
2018-12-05T21:41:39.781Z,99516.91
2018-12-05T21:44:09.947Z,99516.73
2018-12-05T21:46:40.394Z,99515.44
2018-12-05T21:49:10.926Z,99520.06
2018-12-05T21:51:45.158Z,99518.28
2018-12-05T21:54:16.811Z,99512.28
2018-12-05T21:56:48.154Z,99516.29
2018-12-05T21:59:18.815Z,99516.16
2018-12-05T22:01:50.059Z,99512.02
2018-12-05T22:04:20.560Z,99509.20
2018-12-05T22:06:51.900Z,99510.85
2018-12-05T22:09:22.740Z,99516.13
2018-12-05T22:11:52.995Z,99507.06
2018-12-05T22:14:24.029Z,99506.44
2018-12-05T22:16:55.355Z,99512.38
2018-12-05T22:19:26.099Z,99507.97
2018-12-05T22:21:56.522Z,99511.79
2018-12-05T22:24:26.934Z,99520.09
2018-12-05T22:26:57.842Z,99504.03
2018-12-05T22:29:28.600Z,99501.62
2018-12-05T22:31:59.498Z,99507.48
2018-12-05T22:34:29.802Z,99505.72
2018-12-05T22:37:00.521Z,99500.70
2018-12-05T22:39:31.371Z,99497.84
2018-12-05T22:42:02.461Z,99499.91
2018-12-05T22:44:32.856Z,99495.79
2018-12-05T22:47:03.419Z,99494.33
2018-12-05T22:49:33.858Z,99489.17
2018-12-05T22:52:04.113Z,99486.34
2018-12-05T22:54:34.812Z,99489.23
2018-12-05T22:57:14.221Z,99486.25
2018-12-05T22:59:44.780Z,99484.40
2018-12-05T23:02:15.494Z,99484.94
2018-12-05T23:04:46.008Z,99487.88
2018-12-05T23:07:16.602Z,99484.88
2018-12-05T23:09:47.031Z,99478.86
2018-12-05T23:12:21.456Z,99472.12
2018-12-05T23:14:52.269Z,99468.53
2018-12-05T23:17:22.777Z,99467.91
2018-12-05T23:19:53.102Z,99463.23
2018-12-05T23:22:24.243Z,99454.16
2018-12-05T23:24:54.476Z,99455.31
2018-12-05T23:27:25.198Z,99457.98
2018-12-05T23:29:55.354Z,99451.48
2018-12-05T23:32:25.635Z,99452.20
2018-12-05T23:34:59.544Z,99445.72
2018-12-05T23:37:30.284Z,99445.58
2018-12-05T23:40:00.986Z,99450.61
2018-12-05T23:42:31.529Z,99444.81
2018-12-05T23:45:02.375Z,99442.01
2018-12-05T23:47:33.830Z,99443.91
2018-12-05T23:50:03.950Z,99443.45
2018-12-05T23:52:35.014Z,99449.66
2018-12-05T23:55:05.715Z,99447.52
2018-12-05T23:57:36.447Z,99442.34
